sensor_id;sensor_type;location;lat;lon;timestamp;P1;durP1;ratioP1;P2;durP2;ratioP2
42742;SDS011;28397;44.552;-0.848;2023-04-24T00:00:00;16.77;;;3.50;;
42742;SDS011;28397;44.552;-0.848;2023-04-24T00:02:30;18.63;;;3.78;;
42742;SDS011;28397;44.552;-0.848;2023-04-24T00:04:56;19.33;;;3.65;;
42742;SDS011;28397;44.552;-0.848;2023-04-24T00:07:22;12.57;;;3.05;;
42742;SDS011;28397;44.552;-0.848;2023-04-24T00:09:48;15.90;;;3.10;;
42742;SDS011;28397;44.552;-0.848;2023-04-24T00:12:13;19.65;;;4.10;;
42742;SDS011;28397;44.552;-0.848;2023-04-24T00:14:39;13.82;;;3.75;;
42742;SDS011;28397;44.552;-0.848;2023-04-24T00:17:05;15.57;;;3.42;;
42742;SDS011;28397;44.552;-0.848;2023-04-24T00:19:31;13.32;;;3.00;;
42742;SDS011;28397;44.552;-0.848;2023-04-24T00:21:56;17.05;;;3.53;;
42742;SDS011;28397;44.552;-0.848;2023-04-24T00:24:22;17.40;;;3.75;;
42742;SDS011;28397;44.552;-0.848;2023-04-24T00:26:47;17.35;;;3.65;;
42742;SDS011;28397;44.552;-0.848;2023-04-24T00:29:13;14.23;;;3.15;;
42742;SDS011;28397;44.552;-0.848;2023-04-24T00:31:39;15.70;;;3.30;;
42742;SDS011;28397;44.552;-0.848;2023-04-24T00:34:05;17.42;;;3.83;;
42742;SDS011;28397;44.552;-0.848;2023-04-24T00:36:31;16.48;;;3.58;;
42742;SDS011;28397;44.552;-0.848;2023-04-24T00:38:57;15.77;;;3.85;;
42742;SDS011;28397;44.552;-0.848;2023-04-24T00:41:24;13.02;;;3.88;;
42742;SDS011;28397;44.552;-0.848;2023-04-24T00:43:50;15.32;;;3.10;;
42742;SDS011;28397;44.552;-0.848;2023-04-24T00:46:17;8.82;;;2.53;;
42742;SDS011;28397;44.552;-0.848;2023-04-24T00:48:43;14.30;;;3.05;;
42742;SDS011;28397;44.552;-0.848;2023-04-24T00:51:09;11.82;;;3.03;;
42742;SDS011;28397;44.552;-0.848;2023-04-24T00:53:34;10.35;;;2.85;;
42742;SDS011;28397;44.552;-0.848;2023-04-24T00:56:00;10.52;;;2.80;;
42742;SDS011;28397;44.552;-0.848;2023-04-24T00:58:27;11.73;;;2.83;;
42742;SDS011;28397;44.552;-0.848;2023-04-24T01:00:53;11.57;;;2.92;;
42742;SDS011;28397;44.552;-0.848;2023-04-24T01:03:21;11.90;;;3.05;;
42742;SDS011;28397;44.552;-0.848;2023-04-24T01:05:49;12.52;;;2.75;;
42742;SDS011;28397;44.552;-0.848;2023-04-24T01:08:15;10.35;;;2.40;;
42742;SDS011;28397;44.552;-0.848;2023-04-24T01:10:41;9.50;;;2.72;;
42742;SDS011;28397;44.552;-0.848;2023-04-24T01:13:10;7.38;;;2.70;;
42742;SDS011;28397;44.552;-0.848;2023-04-24T01:15:36;9.65;;;2.55;;
42742;SDS011;28397;44.552;-0.848;2023-04-24T01:18:02;10.70;;;3.10;;
42742;SDS011;28397;44.552;-0.848;2023-04-24T01:20:28;11.73;;;2.95;;
42742;SDS011;28397;44.552;-0.848;2023-04-24T01:22:55;12.63;;;2.80;;
42742;SDS011;28397;44.552;-0.848;2023-04-24T01:25:22;13.73;;;3.08;;
42742;SDS011;28397;44.552;-0.848;2023-04-24T01:27:49;10.52;;;3.63;;
42742;SDS011;28397;44.552;-0.848;2023-04-24T01:30:16;9.25;;;3.63;;
42742;SDS011;28397;44.552;-0.848;2023-04-24T01:32:42;14.00;;;3.55;;
42742;SDS011;28397;44.552;-0.848;2023-04-24T01:35:09;9.10;;;3.58;;
42742;SDS011;28397;44.552;-0.848;2023-04-24T01:37:35;10.73;;;3.38;;
42742;SDS011;28397;44.552;-0.848;2023-04-24T01:40:07;11.32;;;3.40;;
42742;SDS011;28397;44.552;-0.848;2023-04-24T01:42:34;9.40;;;3.25;;
42742;SDS011;28397;44.552;-0.848;2023-04-24T01:44:59;8.85;;;3.65;;
42742;SDS011;28397;44.552;-0.848;2023-04-24T01:47:26;12.30;;;3.45;;
42742;SDS011;28397;44.552;-0.848;2023-04-24T01:49:53;8.88;;;3.50;;
42742;SDS011;28397;44.552;-0.848;2023-04-24T01:52:18;13.10;;;3.83;;
42742;SDS011;28397;44.552;-0.848;2023-04-24T01:54:44;8.15;;;3.42;;
42742;SDS011;28397;44.552;-0.848;2023-04-24T01:57:10;10.55;;;3.78;;
42742;SDS011;28397;44.552;-0.848;2023-04-24T01:59:36;11.95;;;3.70;;
42742;SDS011;28397;44.552;-0.848;2023-04-24T02:02:02;13.73;;;3.72;;
42742;SDS011;28397;44.552;-0.848;2023-04-24T02:04:28;10.98;;;3.85;;
42742;SDS011;28397;44.552;-0.848;2023-04-24T02:06:54;10.45;;;3.40;;
42742;SDS011;28397;44.552;-0.848;2023-04-24T02:09:20;11.38;;;3.95;;
42742;SDS011;28397;44.552;-0.848;2023-04-24T02:11:45;12.65;;;4.15;;
42742;SDS011;28397;44.552;-0.848;2023-04-24T02:14:11;9.30;;;3.20;;
42742;SDS011;28397;44.552;-0.848;2023-04-24T02:16:37;10.20;;;3.22;;
42742;SDS011;28397;44.552;-0.848;2023-04-24T02:19:03;11.00;;;3.38;;
42742;SDS011;28397;44.552;-0.848;2023-04-24T02:21:29;12.05;;;3.50;;
42742;SDS011;28397;44.552;-0.848;2023-04-24T02:23:56;9.95;;;3.30;;
42742;SDS011;28397;44.552;-0.848;2023-04-24T02:26:21;11.85;;;4.00;;
42742;SDS011;28397;44.552;-0.848;2023-04-24T02:28:47;8.75;;;3.70;;
42742;SDS011;28397;44.552;-0.848;2023-04-24T02:31:13;11.55;;;4.05;;
42742;SDS011;28397;44.552;-0.848;2023-04-24T02:33:39;11.50;;;3.75;;
42742;SDS011;28397;44.552;-0.848;2023-04-24T02:36:05;11.65;;;4.10;;
42742;SDS011;28397;44.552;-0.848;2023-04-24T02:38:30;9.55;;;3.78;;
42742;SDS011;28397;44.552;-0.848;2023-04-24T02:40:56;11.50;;;4.00;;
42742;SDS011;28397;44.552;-0.848;2023-04-24T02:43:22;8.48;;;3.83;;
42742;SDS011;28397;44.552;-0.848;2023-04-24T02:45:48;9.70;;;4.10;;
42742;SDS011;28397;44.552;-0.848;2023-04-24T02:48:14;8.95;;;3.83;;
42742;SDS011;28397;44.552;-0.848;2023-04-24T02:50:40;12.90;;;4.18;;
42742;SDS011;28397;44.552;-0.848;2023-04-24T02:53:05;12.15;;;4.15;;
42742;SDS011;28397;44.552;-0.848;2023-04-24T02:55:31;9.15;;;3.92;;
42742;SDS011;28397;44.552;-0.848;2023-04-24T02:57:57;10.63;;;4.05;;
42742;SDS011;28397;44.552;-0.848;2023-04-24T03:00:22;9.45;;;3.90;;
42742;SDS011;28397;44.552;-0.848;2023-04-24T03:02:48;9.95;;;4.25;;
42742;SDS011;28397;44.552;-0.848;2023-04-24T03:05:15;10.73;;;4.07;;
42742;SDS011;28397;44.552;-0.848;2023-04-24T03:07:40;11.38;;;4.03;;
42742;SDS011;28397;44.552;-0.848;2023-04-24T03:10:06;9.73;;;3.78;;
42742;SDS011;28397;44.552;-0.848;2023-04-24T03:12:32;10.63;;;4.22;;
42742;SDS011;28397;44.552;-0.848;2023-04-24T03:14:58;12.25;;;4.40;;
42742;SDS011;28397;44.552;-0.848;2023-04-24T03:17:24;7.95;;;3.90;;
42742;SDS011;28397;44.552;-0.848;2023-04-24T03:19:50;8.25;;;3.90;;
42742;SDS011;28397;44.552;-0.848;2023-04-24T03:22:16;11.02;;;4.10;;
42742;SDS011;28397;44.552;-0.848;2023-04-24T03:24:41;8.43;;;4.13;;
42742;SDS011;28397;44.552;-0.848;2023-04-24T03:27:07;10.00;;;4.35;;
42742;SDS011;28397;44.552;-0.848;2023-04-24T03:29:32;9.25;;;4.30;;
42742;SDS011;28397;44.552;-0.848;2023-04-24T03:31:58;12.20;;;4.63;;
42742;SDS011;28397;44.552;-0.848;2023-04-24T03:34:24;12.27;;;4.57;;
42742;SDS011;28397;44.552;-0.848;2023-04-24T03:36:50;10.77;;;4.30;;
42742;SDS011;28397;44.552;-0.848;2023-04-24T03:39:15;10.35;;;4.60;;
42742;SDS011;28397;44.552;-0.848;2023-04-24T03:41:41;13.82;;;4.75;;
42742;SDS011;28397;44.552;-0.848;2023-04-24T03:44:07;11.65;;;4.70;;
42742;SDS011;28397;44.552;-0.848;2023-04-24T03:46:32;8.65;;;4.25;;
42742;SDS011;28397;44.552;-0.848;2023-04-24T03:48:58;14.20;;;4.68;;
42742;SDS011;28397;44.552;-0.848;2023-04-24T03:51:24;11.63;;;4.75;;
42742;SDS011;28397;44.552;-0.848;2023-04-24T03:53:50;10.13;;;4.55;;
42742;SDS011;28397;44.552;-0.848;2023-04-24T03:56:16;9.90;;;4.70;;
42742;SDS011;28397;44.552;-0.848;2023-04-24T03:58:42;10.18;;;4.45;;
42742;SDS011;28397;44.552;-0.848;2023-04-24T04:01:07;8.55;;;4.40;;
42742;SDS011;28397;44.552;-0.848;2023-04-24T04:03:33;10.65;;;4.80;;
42742;SDS011;28397;44.552;-0.848;2023-04-24T04:05:59;11.00;;;4.90;;
42742;SDS011;28397;44.552;-0.848;2023-04-24T04:08:24;11.07;;;4.50;;
42742;SDS011;28397;44.552;-0.848;2023-04-24T04:10:50;10.85;;;4.40;;
42742;SDS011;28397;44.552;-0.848;2023-04-24T04:13:16;10.45;;;4.57;;
42742;SDS011;28397;44.552;-0.848;2023-04-24T04:15:42;10.27;;;4.38;;
42742;SDS011;28397;44.552;-0.848;2023-04-24T04:18:07;10.98;;;4.70;;
42742;SDS011;28397;44.552;-0.848;2023-04-24T04:20:33;10.57;;;4.70;;
42742;SDS011;28397;44.552;-0.848;2023-04-24T04:22:59;12.60;;;4.72;;
42742;SDS011;28397;44.552;-0.848;2023-04-24T04:25:25;9.43;;;4.70;;
42742;SDS011;28397;44.552;-0.848;2023-04-24T04:27:50;12.02;;;4.95;;
42742;SDS011;28397;44.552;-0.848;2023-04-24T04:30:17;13.52;;;5.30;;
42742;SDS011;28397;44.552;-0.848;2023-04-24T04:32:43;10.15;;;4.60;;
42742;SDS011;28397;44.552;-0.848;2023-04-24T04:35:09;12.27;;;5.03;;
42742;SDS011;28397;44.552;-0.848;2023-04-24T04:37:35;11.38;;;4.68;;
42742;SDS011;28397;44.552;-0.848;2023-04-24T04:40:01;14.52;;;5.32;;
42742;SDS011;28397;44.552;-0.848;2023-04-24T04:42:37;14.50;;;5.00;;
42742;SDS011;28397;44.552;-0.848;2023-04-24T04:45:06;9.75;;;5.15;;
42742;SDS011;28397;44.552;-0.848;2023-04-24T04:47:33;12.88;;;5.63;;
42742;SDS011;28397;44.552;-0.848;2023-04-24T04:49:59;10.60;;;5.10;;
42742;SDS011;28397;44.552;-0.848;2023-04-24T04:52:25;7.90;;;5.18;;
42742;SDS011;28397;44.552;-0.848;2023-04-24T04:54:52;13.02;;;5.60;;
42742;SDS011;28397;44.552;-0.848;2023-04-24T04:57:17;10.65;;;5.10;;
42742;SDS011;28397;44.552;-0.848;2023-04-24T04:59:43;10.10;;;5.00;;
42742;SDS011;28397;44.552;-0.848;2023-04-24T05:02:09;10.82;;;5.40;;
42742;SDS011;28397;44.552;-0.848;2023-04-24T05:04:35;11.35;;;5.25;;
42742;SDS011;28397;44.552;-0.848;2023-04-24T05:07:01;9.43;;;5.57;;
42742;SDS011;28397;44.552;-0.848;2023-04-24T05:09:27;10.07;;;5.30;;
42742;SDS011;28397;44.552;-0.848;2023-04-24T05:11:54;12.45;;;5.82;;
42742;SDS011;28397;44.552;-0.848;2023-04-24T05:14:20;11.32;;;5.53;;
42742;SDS011;28397;44.552;-0.848;2023-04-24T05:16:46;10.82;;;5.28;;
42742;SDS011;28397;44.552;-0.848;2023-04-24T05:19:12;17.77;;;6.20;;
42742;SDS011;28397;44.552;-0.848;2023-04-24T05:21:39;11.70;;;6.00;;
42742;SDS011;28397;44.552;-0.848;2023-04-24T05:24:05;12.68;;;5.55;;
42742;SDS011;28397;44.552;-0.848;2023-04-24T05:26:31;10.63;;;5.40;;
42742;SDS011;28397;44.552;-0.848;2023-04-24T05:28:57;15.32;;;5.40;;
42742;SDS011;28397;44.552;-0.848;2023-04-24T05:31:22;14.07;;;5.72;;
42742;SDS011;28397;44.552;-0.848;2023-04-24T05:33:48;10.25;;;6.00;;
42742;SDS011;28397;44.552;-0.848;2023-04-24T05:36:14;12.75;;;5.95;;
42742;SDS011;28397;44.552;-0.848;2023-04-24T05:38:40;18.50;;;6.05;;
42742;SDS011;28397;44.552;-0.848;2023-04-24T05:41:05;10.93;;;5.90;;
42742;SDS011;28397;44.552;-0.848;2023-04-24T05:43:31;11.88;;;5.32;;
42742;SDS011;28397;44.552;-0.848;2023-04-24T05:45:57;10.27;;;5.32;;
42742;SDS011;28397;44.552;-0.848;2023-04-24T05:48:22;12.38;;;5.20;;
42742;SDS011;28397;44.552;-0.848;2023-04-24T05:50:48;12.75;;;5.80;;
42742;SDS011;28397;44.552;-0.848;2023-04-24T05:53:14;12.63;;;5.43;;
42742;SDS011;28397;44.552;-0.848;2023-04-24T05:55:40;12.77;;;5.40;;
42742;SDS011;28397;44.552;-0.848;2023-04-24T05:58:06;12.32;;;6.32;;
42742;SDS011;28397;44.552;-0.848;2023-04-24T06:00:32;14.75;;;5.65;;
42742;SDS011;28397;44.552;-0.848;2023-04-24T06:02:59;12.45;;;5.40;;
42742;SDS011;28397;44.552;-0.848;2023-04-24T06:05:25;13.70;;;5.50;;
42742;SDS011;28397;44.552;-0.848;2023-04-24T06:07:51;14.18;;;5.75;;
42742;SDS011;28397;44.552;-0.848;2023-04-24T06:10:17;12.98;;;5.63;;
42742;SDS011;28397;44.552;-0.848;2023-04-24T06:12:42;9.82;;;5.97;;
42742;SDS011;28397;44.552;-0.848;2023-04-24T06:15:08;13.55;;;5.90;;
42742;SDS011;28397;44.552;-0.848;2023-04-24T06:17:35;11.70;;;5.63;;
42742;SDS011;28397;44.552;-0.848;2023-04-24T06:20:01;13.32;;;5.68;;
42742;SDS011;28397;44.552;-0.848;2023-04-24T06:22:30;9.95;;;5.47;;
42742;SDS011;28397;44.552;-0.848;2023-04-24T06:24:56;11.25;;;5.60;;
42742;SDS011;28397;44.552;-0.848;2023-04-24T06:27:21;13.45;;;5.82;;
42742;SDS011;28397;44.552;-0.848;2023-04-24T06:29:47;13.65;;;5.57;;
42742;SDS011;28397;44.552;-0.848;2023-04-24T06:32:19;15.65;;;5.95;;
42742;SDS011;28397;44.552;-0.848;2023-04-24T06:34:48;11.98;;;5.75;;
42742;SDS011;28397;44.552;-0.848;2023-04-24T06:37:14;13.98;;;5.55;;
42742;SDS011;28397;44.552;-0.848;2023-04-24T06:39:41;13.10;;;5.55;;
42742;SDS011;28397;44.552;-0.848;2023-04-24T06:42:07;12.35;;;5.45;;
42742;SDS011;28397;44.552;-0.848;2023-04-24T06:44:34;14.30;;;5.90;;
42742;SDS011;28397;44.552;-0.848;2023-04-24T06:47:05;12.70;;;5.57;;
42742;SDS011;28397;44.552;-0.848;2023-04-24T06:49:32;13.95;;;5.50;;
42742;SDS011;28397;44.552;-0.848;2023-04-24T06:51:58;9.68;;;5.22;;
42742;SDS011;28397;44.552;-0.848;2023-04-24T06:54:23;12.82;;;5.35;;
42742;SDS011;28397;44.552;-0.848;2023-04-24T06:56:49;13.93;;;5.80;;
42742;SDS011;28397;44.552;-0.848;2023-04-24T06:59:16;10.93;;;5.47;;
42742;SDS011;28397;44.552;-0.848;2023-04-24T07:01:42;10.93;;;5.70;;
42742;SDS011;28397;44.552;-0.848;2023-04-24T07:04:07;15.30;;;5.95;;
42742;SDS011;28397;44.552;-0.848;2023-04-24T07:06:33;13.48;;;5.88;;
42742;SDS011;28397;44.552;-0.848;2023-04-24T07:09:00;10.10;;;5.75;;
42742;SDS011;28397;44.552;-0.848;2023-04-24T07:11:26;12.63;;;6.20;;
42742;SDS011;28397;44.552;-0.848;2023-04-24T07:13:54;12.43;;;5.72;;
42742;SDS011;28397;44.552;-0.848;2023-04-24T07:16:20;15.02;;;6.00;;
42742;SDS011;28397;44.552;-0.848;2023-04-24T07:18:46;10.98;;;5.95;;
42742;SDS011;28397;44.552;-0.848;2023-04-24T07:21:12;14.05;;;5.72;;
42742;SDS011;28397;44.552;-0.848;2023-04-24T07:23:37;12.82;;;5.97;;
42742;SDS011;28397;44.552;-0.848;2023-04-24T07:26:03;15.57;;;6.00;;
42742;SDS011;28397;44.552;-0.848;2023-04-24T07:28:29;17.65;;;6.03;;
42742;SDS011;28397;44.552;-0.848;2023-04-24T07:30:58;13.27;;;6.43;;
42742;SDS011;28397;44.552;-0.848;2023-04-24T07:33:25;13.55;;;5.97;;
42742;SDS011;28397;44.552;-0.848;2023-04-24T07:35:51;16.10;;;6.88;;
42742;SDS011;28397;44.552;-0.848;2023-04-24T07:38:17;16.75;;;6.22;;
42742;SDS011;28397;44.552;-0.848;2023-04-24T07:40:47;14.45;;;6.55;;
42742;SDS011;28397;44.552;-0.848;2023-04-24T07:43:13;14.98;;;6.90;;
42742;SDS011;28397;44.552;-0.848;2023-04-24T07:45:38;13.75;;;6.40;;
42742;SDS011;28397;44.552;-0.848;2023-04-24T07:48:04;17.15;;;6.35;;
42742;SDS011;28397;44.552;-0.848;2023-04-24T07:50:30;15.60;;;5.88;;
42742;SDS011;28397;44.552;-0.848;2023-04-24T07:52:56;12.07;;;5.80;;
42742;SDS011;28397;44.552;-0.848;2023-04-24T07:55:22;13.90;;;5.40;;
42742;SDS011;28397;44.552;-0.848;2023-04-24T07:57:48;14.07;;;5.18;;
42742;SDS011;28397;44.552;-0.848;2023-04-24T08:00:14;16.15;;;5.13;;
42742;SDS011;28397;44.552;-0.848;2023-04-24T08:02:40;16.42;;;5.13;;
42742;SDS011;28397;44.552;-0.848;2023-04-24T08:05:06;10.88;;;4.93;;
42742;SDS011;28397;44.552;-0.848;2023-04-24T08:07:32;13.45;;;5.60;;
42742;SDS011;28397;44.552;-0.848;2023-04-24T08:09:58;15.45;;;5.53;;
42742;SDS011;28397;44.552;-0.848;2023-04-24T08:12:24;14.27;;;5.30;;
42742;SDS011;28397;44.552;-0.848;2023-04-24T08:14:50;15.30;;;5.13;;
42742;SDS011;28397;44.552;-0.848;2023-04-24T08:17:16;16.23;;;5.28;;
42742;SDS011;28397;44.552;-0.848;2023-04-24T08:19:44;13.77;;;4.53;;
42742;SDS011;28397;44.552;-0.848;2023-04-24T08:22:13;17.83;;;4.78;;
42742;SDS011;28397;44.552;-0.848;2023-04-24T08:24:42;18.13;;;4.78;;
42742;SDS011;28397;44.552;-0.848;2023-04-24T08:27:09;14.15;;;5.38;;
42742;SDS011;28397;44.552;-0.848;2023-04-24T08:29:35;13.10;;;4.43;;
42742;SDS011;28397;44.552;-0.848;2023-04-24T08:32:01;11.32;;;4.55;;
42742;SDS011;28397;44.552;-0.848;2023-04-24T08:34:27;14.90;;;4.90;;
42742;SDS011;28397;44.552;-0.848;2023-04-24T08:36:53;13.95;;;5.18;;
42742;SDS011;28397;44.552;-0.848;2023-04-24T08:39:18;15.95;;;5.45;;
42742;SDS011;28397;44.552;-0.848;2023-04-24T08:41:44;11.23;;;4.55;;
42742;SDS011;28397;44.552;-0.848;2023-04-24T08:44:10;16.00;;;4.15;;
42742;SDS011;28397;44.552;-0.848;2023-04-24T08:46:37;15.75;;;4.13;;
42742;SDS011;28397;44.552;-0.848;2023-04-24T08:49:05;14.90;;;4.50;;
42742;SDS011;28397;44.552;-0.848;2023-04-24T08:51:31;11.48;;;4.43;;
42742;SDS011;28397;44.552;-0.848;2023-04-24T08:53:57;13.10;;;4.25;;
42742;SDS011;28397;44.552;-0.848;2023-04-24T08:56:23;13.95;;;3.92;;
42742;SDS011;28397;44.552;-0.848;2023-04-24T08:58:53;13.13;;;4.15;;
42742;SDS011;28397;44.552;-0.848;2023-04-24T09:01:20;15.82;;;4.63;;
42742;SDS011;28397;44.552;-0.848;2023-04-24T09:03:47;14.02;;;4.70;;
42742;SDS011;28397;44.552;-0.848;2023-04-24T09:06:14;13.20;;;4.38;;
42742;SDS011;28397;44.552;-0.848;2023-04-24T09:08:42;11.55;;;4.20;;
42742;SDS011;28397;44.552;-0.848;2023-04-24T09:11:10;16.58;;;4.55;;
42742;SDS011;28397;44.552;-0.848;2023-04-24T09:13:36;14.88;;;5.03;;
42742;SDS011;28397;44.552;-0.848;2023-04-24T09:16:03;14.23;;;4.30;;
42742;SDS011;28397;44.552;-0.848;2023-04-24T09:18:29;12.70;;;4.35;;
42742;SDS011;28397;44.552;-0.848;2023-04-24T09:21:02;13.18;;;4.28;;
42742;SDS011;28397;44.552;-0.848;2023-04-24T09:23:31;9.27;;;4.40;;
42742;SDS011;28397;44.552;-0.848;2023-04-24T09:25:58;11.45;;;4.40;;
42742;SDS011;28397;44.552;-0.848;2023-04-24T09:28:31;9.40;;;3.97;;
42742;SDS011;28397;44.552;-0.848;2023-04-24T09:31:03;13.85;;;4.68;;
42742;SDS011;28397;44.552;-0.848;2023-04-24T09:33:40;6.97;;;4.10;;
42742;SDS011;28397;44.552;-0.848;2023-04-24T09:36:34;13.32;;;4.10;;
42742;SDS011;28397;44.552;-0.848;2023-04-24T09:39:18;8.10;;;4.00;;
42742;SDS011;28397;44.552;-0.848;2023-04-24T09:41:48;9.40;;;4.38;;
42742;SDS011;28397;44.552;-0.848;2023-04-24T09:44:19;12.80;;;4.35;;
42742;SDS011;28397;44.552;-0.848;2023-04-24T09:46:49;9.80;;;3.85;;
42742;SDS011;28397;44.552;-0.848;2023-04-24T09:49:22;9.40;;;3.95;;
42742;SDS011;28397;44.552;-0.848;2023-04-24T09:52:08;10.10;;;3.83;;
42742;SDS011;28397;44.552;-0.848;2023-04-24T09:54:35;8.70;;;3.78;;
42742;SDS011;28397;44.552;-0.848;2023-04-24T09:57:02;9.68;;;3.97;;
42742;SDS011;28397;44.552;-0.848;2023-04-24T09:59:27;6.72;;;3.50;;
42742;SDS011;28397;44.552;-0.848;2023-04-24T10:01:54;11.30;;;4.13;;
42742;SDS011;28397;44.552;-0.848;2023-04-24T10:04:24;9.57;;;3.75;;
42742;SDS011;28397;44.552;-0.848;2023-04-24T10:06:52;8.18;;;3.38;;
42742;SDS011;28397;44.552;-0.848;2023-04-24T10:09:23;11.40;;;3.50;;
42742;SDS011;28397;44.552;-0.848;2023-04-24T10:11:51;8.77;;;3.20;;
42742;SDS011;28397;44.552;-0.848;2023-04-24T10:14:24;7.28;;;3.20;;
42742;SDS011;28397;44.552;-0.848;2023-04-24T10:16:53;7.60;;;3.10;;
42742;SDS011;28397;44.552;-0.848;2023-04-24T10:19:21;6.55;;;3.10;;
42742;SDS011;28397;44.552;-0.848;2023-04-24T10:21:50;6.07;;;2.97;;
42742;SDS011;28397;44.552;-0.848;2023-04-24T10:24:17;10.00;;;3.33;;
42742;SDS011;28397;44.552;-0.848;2023-04-24T10:26:46;5.07;;;3.10;;
42742;SDS011;28397;44.552;-0.848;2023-04-24T10:29:14;10.73;;;3.20;;
42742;SDS011;28397;44.552;-0.848;2023-04-24T10:31:43;7.50;;;3.28;;
42742;SDS011;28397;44.552;-0.848;2023-04-24T10:34:10;10.43;;;3.58;;
42742;SDS011;28397;44.552;-0.848;2023-04-24T10:36:38;13.07;;;3.78;;
42742;SDS011;28397;44.552;-0.848;2023-04-24T10:39:08;11.77;;;4.00;;
42742;SDS011;28397;44.552;-0.848;2023-04-24T10:41:37;9.63;;;3.45;;
42742;SDS011;28397;44.552;-0.848;2023-04-24T10:44:12;12.73;;;3.80;;
42742;SDS011;28397;44.552;-0.848;2023-04-24T10:46:43;12.30;;;4.30;;
42742;SDS011;28397;44.552;-0.848;2023-04-24T10:49:10;8.77;;;3.20;;
42742;SDS011;28397;44.552;-0.848;2023-04-24T10:51:51;7.75;;;3.03;;
42742;SDS011;28397;44.552;-0.848;2023-04-24T10:54:21;8.10;;;3.30;;
42742;SDS011;28397;44.552;-0.848;2023-04-24T11:00:12;7.88;;;2.88;;
42742;SDS011;28397;44.552;-0.848;2023-04-24T11:02:39;7.75;;;2.97;;
42742;SDS011;28397;44.552;-0.848;2023-04-24T11:05:08;9.25;;;3.03;;
42742;SDS011;28397;44.552;-0.848;2023-04-24T11:08:09;6.85;;;3.15;;
42742;SDS011;28397;44.552;-0.848;2023-04-24T11:10:33;6.70;;;3.10;;
42742;SDS011;28397;44.552;-0.848;2023-04-24T11:13:02;7.90;;;3.10;;
42742;SDS011;28397;44.552;-0.848;2023-04-24T11:15:28;8.50;;;3.15;;
42742;SDS011;28397;44.552;-0.848;2023-04-24T11:17:55;10.00;;;3.20;;
42742;SDS011;28397;44.552;-0.848;2023-04-24T11:20:23;6.82;;;3.13;;
42742;SDS011;28397;44.552;-0.848;2023-04-24T11:22:50;7.60;;;3.13;;
42742;SDS011;28397;44.552;-0.848;2023-04-24T11:25:22;9.30;;;3.25;;
42742;SDS011;28397;44.552;-0.848;2023-04-24T11:27:50;8.98;;;3.10;;
42742;SDS011;28397;44.552;-0.848;2023-04-24T11:30:29;8.77;;;2.72;;
42742;SDS011;28397;44.552;-0.848;2023-04-24T11:32:56;7.57;;;2.58;;
42742;SDS011;28397;44.552;-0.848;2023-04-24T11:35:34;7.00;;;2.60;;
42742;SDS011;28397;44.552;-0.848;2023-04-24T11:38:04;5.00;;;2.38;;
42742;SDS011;28397;44.552;-0.848;2023-04-24T11:40:30;6.15;;;2.50;;
42742;SDS011;28397;44.552;-0.848;2023-04-24T11:42:56;9.15;;;2.42;;
42742;SDS011;28397;44.552;-0.848;2023-04-24T11:45:25;6.43;;;2.60;;
42742;SDS011;28397;44.552;-0.848;2023-04-24T11:47:52;7.13;;;2.40;;
42742;SDS011;28397;44.552;-0.848;2023-04-24T11:50:19;5.30;;;2.00;;
42742;SDS011;28397;44.552;-0.848;2023-04-24T11:52:47;4.93;;;2.20;;
42742;SDS011;28397;44.552;-0.848;2023-04-24T11:57:43;5.82;;;2.00;;
42742;SDS011;28397;44.552;-0.848;2023-04-24T12:00:21;3.70;;;1.80;;
42742;SDS011;28397;44.552;-0.848;2023-04-24T12:02:48;4.32;;;1.60;;
42742;SDS011;28397;44.552;-0.848;2023-04-24T12:05:21;3.90;;;1.83;;
42742;SDS011;28397;44.552;-0.848;2023-04-24T12:07:51;3.65;;;1.83;;
42742;SDS011;28397;44.552;-0.848;2023-04-24T12:10:24;3.90;;;1.63;;
42742;SDS011;28397;44.552;-0.848;2023-04-24T12:12:52;4.93;;;1.75;;
42742;SDS011;28397;44.552;-0.848;2023-04-24T12:15:19;4.30;;;1.80;;
42742;SDS011;28397;44.552;-0.848;2023-04-24T12:17:45;4.60;;;1.98;;
42742;SDS011;28397;44.552;-0.848;2023-04-24T12:20:11;7.78;;;3.50;;
42742;SDS011;28397;44.552;-0.848;2023-04-24T12:25:16;4.47;;;1.98;;
42742;SDS011;28397;44.552;-0.848;2023-04-24T12:27:44;6.63;;;1.67;;
42742;SDS011;28397;44.552;-0.848;2023-04-24T12:30:11;3.53;;;1.67;;
42742;SDS011;28397;44.552;-0.848;2023-04-24T12:32:42;3.17;;;1.30;;
42742;SDS011;28397;44.552;-0.848;2023-04-24T12:35:10;5.57;;;1.73;;
42742;SDS011;28397;44.552;-0.848;2023-04-24T12:37:35;3.50;;;1.38;;
42742;SDS011;28397;44.552;-0.848;2023-04-24T12:42:30;6.63;;;1.63;;
42742;SDS011;28397;44.552;-0.848;2023-04-24T12:44:57;2.97;;;1.50;;
42742;SDS011;28397;44.552;-0.848;2023-04-24T12:47:24;3.25;;;1.40;;
42742;SDS011;28397;44.552;-0.848;2023-04-24T12:49:50;5.10;;;1.50;;
42742;SDS011;28397;44.552;-0.848;2023-04-24T12:52:17;2.55;;;1.10;;
42742;SDS011;28397;44.552;-0.848;2023-04-24T12:54:53;3.25;;;1.50;;
42742;SDS011;28397;44.552;-0.848;2023-04-24T12:57:20;5.65;;;1.65;;
42742;SDS011;28397;44.552;-0.848;2023-04-24T12:59:47;4.90;;;1.63;;
42742;SDS011;28397;44.552;-0.848;2023-04-24T13:02:12;4.15;;;1.40;;
42742;SDS011;28397;44.552;-0.848;2023-04-24T13:04:39;4.47;;;1.30;;
42742;SDS011;28397;44.552;-0.848;2023-04-24T13:07:05;3.03;;;1.10;;
42742;SDS011;28397;44.552;-0.848;2023-04-24T13:09:31;3.33;;;1.58;;
42742;SDS011;28397;44.552;-0.848;2023-04-24T13:11:56;5.78;;;1.50;;
42742;SDS011;28397;44.552;-0.848;2023-04-24T13:14:22;5.40;;;1.50;;
42742;SDS011;28397;44.552;-0.848;2023-04-24T13:16:48;5.35;;;1.48;;
42742;SDS011;28397;44.552;-0.848;2023-04-24T13:19:14;2.83;;;1.42;;
42742;SDS011;28397;44.552;-0.848;2023-04-24T13:21:40;4.18;;;1.15;;
42742;SDS011;28397;44.552;-0.848;2023-04-24T13:24:06;4.30;;;1.15;;
42742;SDS011;28397;44.552;-0.848;2023-04-24T13:26:32;4.55;;;1.10;;
42742;SDS011;28397;44.552;-0.848;2023-04-24T13:28:58;3.70;;;1.33;;
42742;SDS011;28397;44.552;-0.848;2023-04-24T13:31:24;5.00;;;1.48;;
42742;SDS011;28397;44.552;-0.848;2023-04-24T13:33:50;2.63;;;1.00;;
42742;SDS011;28397;44.552;-0.848;2023-04-24T13:36:16;3.30;;;1.27;;
42742;SDS011;28397;44.552;-0.848;2023-04-24T13:38:42;4.03;;;1.40;;
42742;SDS011;28397;44.552;-0.848;2023-04-24T13:41:09;3.95;;;1.38;;
42742;SDS011;28397;44.552;-0.848;2023-04-24T13:43:35;5.45;;;1.40;;
42742;SDS011;28397;44.552;-0.848;2023-04-24T13:46:01;5.05;;;1.55;;
42742;SDS011;28397;44.552;-0.848;2023-04-24T13:48:28;4.75;;;1.20;;
42742;SDS011;28397;44.552;-0.848;2023-04-24T13:50:54;2.97;;;1.30;;
42742;SDS011;28397;44.552;-0.848;2023-04-24T13:53:20;4.38;;;1.38;;
42742;SDS011;28397;44.552;-0.848;2023-04-24T13:55:46;5.03;;;1.48;;
42742;SDS011;28397;44.552;-0.848;2023-04-24T13:58:12;3.20;;;1.48;;
42742;SDS011;28397;44.552;-0.848;2023-04-24T14:00:38;4.65;;;1.67;;
42742;SDS011;28397;44.552;-0.848;2023-04-24T14:03:04;5.22;;;1.55;;
42742;SDS011;28397;44.552;-0.848;2023-04-24T14:05:30;3.95;;;1.50;;
42742;SDS011;28397;44.552;-0.848;2023-04-24T14:07:55;5.90;;;1.50;;
42742;SDS011;28397;44.552;-0.848;2023-04-24T14:10:21;5.22;;;1.60;;
42742;SDS011;28397;44.552;-0.848;2023-04-24T14:12:47;8.23;;;2.17;;
42742;SDS011;28397;44.552;-0.848;2023-04-24T14:15:13;6.72;;;1.67;;
42742;SDS011;28397;44.552;-0.848;2023-04-24T14:17:39;7.20;;;2.10;;
42742;SDS011;28397;44.552;-0.848;2023-04-24T14:20:05;7.22;;;1.92;;
42742;SDS011;28397;44.552;-0.848;2023-04-24T14:22:31;6.88;;;1.90;;
42742;SDS011;28397;44.552;-0.848;2023-04-24T14:24:58;5.13;;;1.92;;
42742;SDS011;28397;44.552;-0.848;2023-04-24T14:27:24;6.00;;;1.90;;
42742;SDS011;28397;44.552;-0.848;2023-04-24T14:29:50;6.85;;;2.00;;
42742;SDS011;28397;44.552;-0.848;2023-04-24T14:32:15;7.45;;;2.03;;
42742;SDS011;28397;44.552;-0.848;2023-04-24T14:34:41;10.93;;;2.25;;